Time;durP1;ratioP1;P1;durP2;ratioP2;P2;SDS_P1;SDS_P2;PMS_P1;PMS_P2;Temp;Humidity;BMP_temperature;BMP_pressure;BME280_temperature;BME280_humidity;BME280_pressure;Samples;Min_cycle;Max_cycle;Signal;HPM_P1;HPM_P2
2022/12/27 00:01:17;;;;;;;9.20;8.83;;;9.00;38.30;;;;;;5090087;28;20837;-56
2022/12/27 00:03:44;;;;;;;8.50;8.20;;;9.00;37.80;;;;;;5072878;28;20652;-55
2022/12/27 00:06:19;;;;;;;8.80;8.50;;;9.00;38.20;;;;;;5072243;28;20417;-55
2022/12/27 00:08:46;;;;;;;8.50;8.20;;;8.80;38.00;;;;;;5072962;28;20431;-56
2022/12/27 00:11:16;;;;;;;9.13;8.47;;;8.50;37.90;;;;;;5089191;28;20453;-56
2022/12/27 00:13:42;;;;;;;9.67;9.03;;;8.60;38.00;;;;;;5070967;28;20413;-54
2022/12/27 00:16:10;;;;;;;8.50;8.27;;;8.50;38.80;;;;;;5071755;28;20412;-56
2022/12/27 00:18:37;;;;;;;8.90;8.60;;;8.70;38.10;;;;;;5071431;28;20895;-54
2022/12/27 00:21:03;;;;;;;8.20;7.80;;;8.60;39.00;;;;;;5070937;28;20466;-55
2022/12/27 00:23:35;;;;;;;8.37;7.97;;;8.60;39.50;;;;;;5072145;28;20917;-57
2022/12/27 00:26:09;;;;;;;11.60;11.10;;;8.50;39.70;;;;;;5089616;28;20405;-53
2022/12/27 00:28:35;;;;;;;11.40;10.83;;;8.40;39.40;;;;;;5071518;28;20447;-52
2022/12/27 00:31:01;;;;;;;8.33;7.73;;;8.40;41.20;;;;;;5071755;28;20499;-56
2022/12/27 00:33:28;;;;;;;9.70;9.30;;;8.50;39.90;;;;;;5071231;28;20171;-55
2022/12/27 00:35:54;;;;;;;9.20;8.80;;;8.40;39.70;;;;;;5071766;28;20170;-55
2022/12/27 00:38:20;;;;;;;9.40;9.00;;;8.40;38.90;;;;;;5071488;28;20415;-57
2022/12/27 00:40:46;;;;;;;8.90;8.50;;;8.40;39.80;;;;;;5071445;28;20203;-55
2022/12/27 00:43:12;;;;;;;9.17;8.77;;;8.20;39.80;;;;;;5070996;28;20528;-53
2022/12/27 00:45:38;;;;;;;9.27;8.87;;;8.10;39.40;;;;;;5071690;28;20565;-51
2022/12/27 00:48:03;;;;;;;9.27;8.87;;;8.00;39.30;;;;;;5071138;28;20201;-51
2022/12/27 00:50:29;;;;;;;8.90;8.40;;;8.00;39.60;;;;;;5071458;28;20174;-51
2022/12/27 00:52:55;;;;;;;8.40;8.10;;;8.00;39.50;;;;;;5071527;28;20651;-53
2022/12/27 00:55:20;;;;;;;9.00;8.60;;;7.90;38.70;;;;;;5070904;28;20177;-56
2022/12/27 00:57:46;;;;;;;8.93;8.63;;;7.90;38.70;;;;;;5071781;28;20195;-53
2022/12/27 01:00:12;;;;;;;8.87;8.57;;;7.90;38.60;;;;;;5071671;28;20199;-55
2022/12/27 01:02:38;;;;;;;9.30;8.90;;;7.90;37.60;;;;;;5072597;28;20174;-54
2022/12/27 01:05:04;;;;;;;8.50;8.30;;;7.90;37.70;;;;;;5075157;28;20490;-56
2022/12/27 01:07:30;;;;;;;9.10;8.70;;;7.80;37.90;;;;;;5075015;28;20590;-53
2022/12/27 01:09:56;;;;;;;9.20;8.70;;;7.90;37.50;;;;;;5075212;28;20423;-55
2022/12/27 01:12:22;;;;;;;8.90;8.30;;;8.00;38.60;;;;;;5093893;28;20289;-55
2022/12/27 01:14:47;;;;;;;9.03;8.73;;;7.80;37.50;;;;;;5075413;28;20202;-54
2022/12/27 01:17:13;;;;;;;9.47;9.17;;;7.80;36.90;;;;;;5074913;28;20219;-55
2022/12/27 01:19:38;;;;;;;8.80;8.40;;;7.80;37.80;;;;;;5075103;28;20191;-54
2022/12/27 01:22:05;;;;;;;8.77;8.37;;;7.90;36.90;;;;;;5074890;28;20174;-55
2022/12/27 01:24:32;;;;;;;8.37;8.07;;;8.00;36.90;;;;;;5092837;28;20185;-54
2022/12/27 01:26:58;;;;;;;9.10;8.70;;;8.10;35.90;;;;;;5075134;28;20414;-50
2022/12/27 01:29:24;;;;;;;8.03;7.70;;;8.40;36.30;;;;;;5074573;28;20499;-55
2022/12/27 01:31:50;;;;;;;9.07;8.67;;;8.50;34.80;;;;;;5075390;28;20523;-54
2022/12/27 01:34:16;;;;;;;8.30;7.90;;;8.50;34.00;;;;;;5074990;28;20171;-55
2022/12/27 01:36:42;;;;;;;8.43;8.13;;;8.50;34.00;;;;;;5074844;28;20495;-56
2022/12/27 01:39:11;;;;;;;8.33;8.03;;;8.60;33.70;;;;;;5075013;28;20447;-62
2022/12/27 01:44:42;;;;;;;8.13;7.83;;;8.90;33.30;;;;;;5093034;28;20431;-63
2022/12/27 01:47:11;;;;;;;8.60;8.20;;;8.90;31.50;;;;;;5074382;28;20424;-55
2022/12/27 01:49:39;;;;;;;8.33;8.03;;;8.60;31.60;;;;;;5075055;28;20416;-54
2022/12/27 01:52:08;;;;;;;9.57;8.87;;;8.50;31.20;;;;;;5074061;28;20452;-55
2022/12/27 01:54:34;;;;;;;9.70;8.90;;;8.40;32.70;;;;;;5073824;28;20921;-55
2022/12/27 01:57:00;;;;;;;9.00;8.60;;;8.40;32.10;;;;;;5073830;28;20499;-54
2022/12/27 01:59:26;;;;;;;8.73;8.43;;;8.20;33.70;;;;;;5074422;28;20412;-55
2022/12/27 02:01:52;;;;;;;9.03;8.60;;;8.30;33.40;;;;;;5073646;28;20420;-52
2022/12/27 02:04:22;;;;;;;9.30;8.90;;;8.30;33.10;;;;;;5074487;28;20537;-52
2022/12/27 02:06:49;;;;;;;9.70;9.20;;;8.30;33.80;;;;;;5073869;28;20569;-55
2022/12/27 02:09:21;;;;;;;8.60;8.30;;;8.40;33.60;;;;;;5074285;28;20969;-55
2022/12/27 02:11:51;;;;;;;9.57;8.80;;;8.50;32.50;;;;;;5074100;28;20544;-55
2022/12/27 02:14:33;;;;;;;9.27;8.83;;;8.40;31.80;;;;;;5073497;28;20401;-52
2022/12/27 02:17:05;;;;;;;8.90;8.60;;;8.00;32.50;;;;;;5074153;28;20770;-63
2022/12/27 02:19:40;;;;;;;8.77;8.37;;;7.90;33.20;;;;;;5073931;28;20428;-62
2022/12/27 02:26:17;;;;;;;8.40;8.20;;;7.70;33.20;;;;;;5091230;28;20392;-63
2022/12/27 02:29:04;;;;;;;9.10;8.80;;;7.50;34.70;;;;;;5013039;28;20427;-63
2022/12/27 02:31:34;;;;;;;9.43;9.07;;;7.50;36.70;;;;;;5028893;28;20455;-63
2022/12/27 02:34:04;;;;;;;9.77;9.07;;;7.50;37.40;;;;;;5072610;28;20417;-63
2022/12/27 02:36:34;;;;;;;9.07;8.77;;;7.50;37.70;;;;;;5073501;28;20416;-62
2022/12/27 02:39:01;;;;;;;9.60;8.97;;;7.40;37.10;;;;;;5073378;28;20477;-63
2022/12/27 02:53:07;;;;;;;9.53;9.23;;;7.20;37.60;;;;;;5091343;28;20454;-63
2022/12/27 02:59:09;;;;;;;9.27;8.87;;;7.20;37.90;;;;;;5091364;28;20757;-63
2022/12/27 03:05:18;;;;;;;9.00;8.60;;;7.40;36.00;;;;;;5090716;28;20454;-62
2022/12/27 03:08:16;;;;;;;9.10;8.70;;;7.20;36.60;;;;;;5072830;28;20405;-63
2022/12/27 03:16:42;;;;;;;8.90;8.60;;;6.90;37.10;;;;;;5090839;28;20484;-62
2022/12/27 03:25:26;;;;;;;8.80;8.50;;;6.80;37.70;;;;;;5072698;28;20412;-62
2022/12/27 03:27:39;;;;;;;8.70;8.40;;;6.90;37.30;;;;;;5091189;28;20424;-62
2022/12/27 03:33:12;;;;;;;8.00;7.70;;;6.90;36.30;;;;;;5091156;28;20963;-62
2022/12/27 03:38:52;;;;;;;8.90;8.60;;;7.00;36.30;;;;;;5091741;28;20420;-63
2022/12/27 03:44:25;;;;;;;9.00;8.70;;;7.10;36.20;;;;;;5091149;28;20264;-62
2022/12/27 03:46:58;;;;;;;9.10;8.80;;;7.00;36.10;;;;;;5073245;28;20421;-62
2022/12/27 03:49:33;;;;;;;9.43;9.13;;;7.10;36.60;;;;;;5073297;28;20508;-62
2022/12/27 03:52:16;;;;;;;8.90;8.60;;;7.10;36.00;;;;;;5072593;28;20516;-62
2022/12/27 03:54:44;;;;;;;8.83;8.53;;;7.30;35.90;;;;;;5072323;28;20523;-63
2022/12/27 03:57:16;;;;;;;9.40;9.10;;;7.40;35.60;;;;;;5072600;28;20448;-62
2022/12/27 03:59:42;;;;;;;9.67;9.27;;;7.70;34.80;;;;;;5072271;28;20450;-63
2022/12/27 04:02:09;;;;;;;8.87;8.57;;;8.00;33.00;;;;;;5072163;28;20409;-63
2022/12/27 04:04:35;;;;;;;9.37;8.87;;;8.20;31.70;;;;;;5072241;28;20416;-62
2022/12/27 04:07:00;;;;;;;9.00;8.43;;;8.40;31.10;;;;;;5072327;28;20769;-62
2022/12/27 04:36:49;;;;;;;10.27;9.87;;;6.10;40.00;;;;;;5089503;28;20533;-63
2022/12/27 04:39:14;;;;;;;10.47;10.07;;;6.10;40.00;;;;;;5071345;28;20878;-62
2022/12/27 04:55:28;;;;;;;10.37;9.77;;;6.10;39.40;;;;;;5089866;28;20461;-55
2022/12/27 04:57:55;;;;;;;10.13;9.67;;;6.20;38.70;;;;;;5071291;28;20440;-51
2022/12/27 05:03:11;;;;;;;9.10;8.80;;;6.40;38.30;;;;;;5090432;28;20404;-53
2022/12/27 05:05:38;;;;;;;8.77;8.47;;;6.50;37.90;;;;;;5070816;28;20420;-54
2022/12/27 05:16:18;;;;;;;9.07;8.50;;;6.60;37.20;;;;;;5090282;28;20408;-55
2022/12/27 05:18:44;;;;;;;8.83;8.53;;;6.80;37.00;;;;;;5071906;28;20409;-55
2022/12/27 05:21:09;;;;;;;8.87;8.37;;;6.70;36.70;;;;;;5071882;28;20170;-55
2022/12/27 05:26:25;;;;;;;10.23;9.63;;;6.70;36.60;;;;;;5090139;28;20284;-54
2022/12/27 05:28:53;;;;;;;9.73;9.43;;;6.60;37.30;;;;;;5072130;28;20441;-54
2022/12/27 05:31:21;;;;;;;11.27;10.60;;;6.50;37.50;;;;;;5071853;28;20811;-53
2022/12/27 05:33:48;;;;;;;9.67;9.37;;;6.40;37.30;;;;;;5072228;28;20407;-54
2022/12/27 05:36:13;;;;;;;11.20;10.60;;;6.30;37.80;;;;;;5072221;28;20842;-54
2022/12/27 05:38:39;;;;;;;9.53;9.23;;;6.20;38.60;;;;;;5072429;28;20431;-54
2022/12/27 05:41:05;;;;;;;10.30;9.70;;;6.20;38.40;;;;;;5072074;28;20179;-53
2022/12/27 05:43:31;;;;;;;10.20;9.70;;;6.10;38.80;;;;;;5071814;28;20191;-55
2022/12/27 05:46:03;;;;;;;10.27;9.77;;;5.90;39.10;;;;;;5072123;28;20413;-55
2022/12/27 05:48:28;;;;;;;9.40;9.00;;;5.90;39.20;;;;;;5072643;28;20532;-55
2022/12/27 05:50:54;;;;;;;10.50;10.10;;;5.80;39.20;;;;;;5075686;28;20448;-54
2022/12/27 05:53:20;;;;;;;10.67;10.23;;;5.70;39.80;;;;;;5093684;28;20209;-55
2022/12/27 05:55:53;;;;;;;10.03;9.63;;;5.70;39.30;;;;;;5076654;28;20173;-52
2022/12/27 05:58:19;;;;;;;10.27;9.80;;;5.70;39.80;;;;;;5077012;28;20191;-53
2022/12/27 06:00:44;;;;;;;10.30;9.80;;;5.60;40.00;;;;;;5076561;28;20408;-53
2022/12/27 06:03:10;;;;;;;9.97;9.47;;;5.60;40.00;;;;;;5076389;28;20167;-55
2022/12/27 06:05:35;;;;;;;10.63;9.87;;;5.50;39.90;;;;;;5076520;28;20521;-55
2022/12/27 06:08:01;;;;;;;9.73;9.33;;;5.60;39.60;;;;;;5076375;28;20185;-54
2022/12/27 06:10:27;;;;;;;9.40;9.03;;;5.60;39.40;;;;;;5076634;28;20632;-56
2022/12/27 06:12:52;;;;;;;9.97;9.60;;;5.70;39.40;;;;;;5076140;28;20573;-53
2022/12/27 06:15:18;;;;;;;11.67;11.27;;;5.70;39.00;;;;;;5076026;28;20269;-53
2022/12/27 06:17:44;;;;;;;10.03;9.63;;;5.70;39.00;;;;;;5076633;28;20256;-54
2022/12/27 06:20:09;;;;;;;9.43;9.13;;;5.70;39.30;;;;;;5076331;28;20182;-55
2022/12/27 06:22:35;;;;;;;10.10;9.70;;;5.70;39.00;;;;;;5076203;28;20187;-54
2022/12/27 06:25:01;;;;;;;10.50;10.10;;;5.90;39.20;;;;;;5076388;28;20544;-54
2022/12/27 06:27:26;;;;;;;10.57;10.07;;;6.00;38.10;;;;;;5076206;28;20186;-51
2022/12/27 06:29:52;;;;;;;10.77;10.17;;;6.10;37.30;;;;;;5075802;28;20582;-52
2022/12/27 06:32:18;;;;;;;10.33;9.87;;;6.10;37.10;;;;;;5075722;28;20202;-52
2022/12/27 06:34:45;;;;;;;9.73;9.33;;;6.10;37.20;;;;;;5077906;28;20638;-52
2022/12/27 06:37:11;;;;;;;10.20;9.70;;;6.20;37.40;;;;;;5075965;28;20175;-54
2022/12/27 06:39:36;;;;;;;10.17;9.77;;;6.10;37.10;;;;;;5075665;28;20447;-53
2022/12/27 06:42:02;;;;;;;9.43;9.03;;;6.10;37.10;;;;;;5093939;28;20227;-54
2022/12/27 06:44:28;;;;;;;10.47;9.87;;;6.00;37.20;;;;;;5075880;28;20190;-54
2022/12/27 06:46:53;;;;;;;9.80;9.50;;;5.90;37.60;;;;;;5076370;28;20175;-56
2022/12/27 06:49:19;;;;;;;10.00;9.53;;;5.90;38.50;;;;;;5075695;28;20174;-56
2022/12/27 06:51:47;;;;;;;10.17;9.77;;;5.90;37.80;;;;;;5075702;28;20218;-54
2022/12/27 06:54:13;;;;;;;10.77;10.27;;;5.80;37.90;;;;;;5075792;28;20243;-54
2022/12/27 06:56:38;;;;;;;10.23;9.73;;;5.80;38.00;;;;;;5075901;28;20409;-55
2022/12/27 06:59:04;;;;;;;10.77;10.23;;;5.90;37.80;;;;;;5075404;28;20409;-55
2022/12/27 07:01:30;;;;;;;10.10;9.60;;;6.00;37.20;;;;;;5074340;28;20194;-53
2022/12/27 07:03:58;;;;;;;10.47;9.97;;;6.00;37.40;;;;;;5075972;28;20178;-55
2022/12/27 07:06:26;;;;;;;9.63;9.23;;;6.10;36.80;;;;;;5093737;28;20202;-53
2022/12/27 07:08:53;;;;;;;8.90;8.60;;;6.20;36.30;;;;;;5075418;28;20496;-53
2022/12/27 07:11:20;;;;;;;9.93;9.43;;;6.50;35.70;;;;;;5075146;28;20456;-53
2022/12/27 07:13:48;;;;;;;9.37;8.97;;;6.40;35.40;;;;;;5075505;28;20420;-53
2022/12/27 07:16:17;;;;;;;9.00;8.60;;;6.30;35.10;;;;;;5075031;28;20439;-52
2022/12/27 07:18:44;;;;;;;10.30;9.80;;;6.30;35.70;;;;;;5075352;28;20470;-61
2022/12/27 07:21:15;;;;;;;9.97;9.57;;;6.20;35.40;;;;;;5075067;28;20764;-62
2022/12/27 07:23:41;;;;;;;8.90;8.60;;;6.10;36.00;;;;;;5075604;28;20559;-62
2022/12/27 07:26:10;;;;;;;9.90;9.50;;;6.00;36.50;;;;;;5075541;28;20504;-63
2022/12/27 07:28:37;;;;;;;9.53;8.97;;;5.90;37.00;;;;;;5075111;28;20248;-62
2022/12/27 07:31:18;;;;;;;9.90;9.50;;;5.90;37.50;;;;;;5075234;28;20941;-62
2022/12/27 07:33:44;;;;;;;10.27;9.77;;;5.90;37.60;;;;;;5075108;28;20420;-62
2022/12/27 07:36:16;;;;;;;10.90;10.20;;;6.10;37.40;;;;;;5075108;28;20827;-62
2022/12/27 07:38:43;;;;;;;9.73;9.13;;;6.30;35.80;;;;;;5074915;28;20404;-62
2022/12/27 07:41:10;;;;;;;10.23;9.77;;;6.40;36.50;;;;;;5074964;28;20512;-62
2022/12/27 07:43:35;;;;;;;9.47;8.80;;;6.50;35.60;;;;;;5074918;28;20494;-63
2022/12/27 07:46:19;;;;;;;9.70;9.30;;;6.50;34.80;;;;;;5075151;28;20428;-63
2022/12/27 07:48:46;;;;;;;9.43;9.07;;;6.60;34.50;;;;;;5075161;28;20270;-62
2022/12/27 07:51:11;;;;;;;10.07;9.60;;;6.50;34.50;;;;;;5074296;28;20455;-62
2022/12/27 07:53:37;;;;;;;9.83;9.43;;;6.50;34.50;;;;;;5074981;28;20417;-62
2022/12/27 07:56:15;;;;;;;9.70;9.30;;;6.40;35.10;;;;;;5074835;28;20175;-62
2022/12/27 07:58:43;;;;;;;10.33;9.60;;;6.40;35.40;;;;;;5074889;28;20780;-62
2022/12/27 08:01:10;;;;;;;10.40;10.00;;;6.60;35.70;;;;;;5074646;28;20416;-62
2022/12/27 08:03:37;;;;;;;10.00;9.40;;;6.80;34.60;;;;;;5074763;28;20513;-62
2022/12/27 08:06:03;;;;;;;10.70;10.17;;;6.80;33.80;;;;;;5074562;28;20439;-62
2022/12/27 08:08:48;;;;;;;10.10;9.60;;;6.80;33.70;;;;;;5092649;28;20409;-63
2022/12/27 08:11:14;;;;;;;9.60;9.20;;;6.70;34.00;;;;;;5073956;28;20845;-62
2022/12/27 08:13:39;;;;;;;10.03;9.70;;;6.70;34.20;;;;;;5074564;28;20473;-62
2022/12/27 08:16:05;;;;;;;10.17;9.37;;;6.60;34.80;;;;;;5074644;28;20175;-62
2022/12/27 08:18:31;;;;;;;10.07;9.57;;;6.60;34.60;;;;;;5074266;28;20542;-62
2022/12/27 08:20:57;;;;;;;11.10;10.60;;;6.70;34.30;;;;;;5074325;28;20435;-62
2022/12/27 08:23:23;;;;;;;10.53;9.73;;;6.80;33.70;;;;;;5074151;28;20535;-62
2022/12/27 08:25:48;;;;;;;10.40;9.90;;;6.90;33.90;;;;;;5074259;28;20202;-62
2022/12/27 08:28:16;;;;;;;10.40;10.00;;;6.90;33.80;;;;;;5074423;28;20181;-62
2022/12/27 08:30:43;;;;;;;9.00;8.70;;;7.20;33.50;;;;;;5074092;28;20177;-62
2022/12/27 08:33:10;;;;;;;8.80;8.50;;;7.40;33.10;;;;;;5074345;28;20433;-62
2022/12/27 08:35:44;;;;;;;10.07;9.60;;;7.70;32.00;;;;;;5074093;28;20505;-62
2022/12/27 08:38:10;;;;;;;9.97;9.50;;;8.00;30.80;;;;;;5074441;28;20436;-62
2022/12/27 08:40:41;;;;;;;10.17;9.77;;;8.20;30.40;;;;;;5074128;28;20420;-62
2022/12/27 08:43:07;;;;;;;9.80;9.40;;;8.30;29.60;;;;;;5073966;28;20481;-56
2022/12/27 08:45:33;;;;;;;9.67;9.23;;;8.50;29.20;;;;;;5074102;28;20425;-55
2022/12/27 08:48:00;;;;;;;9.60;9.20;;;8.50;29.00;;;;;;5074128;28;20421;-54
2022/12/27 08:50:26;;;;;;;9.03;8.73;;;8.40;28.90;;;;;;5074036;28;20420;-54
2022/12/27 08:52:55;;;;;;;10.47;9.80;;;8.10;29.40;;;;;;5073926;28;20460;-54
2022/12/27 08:55:20;;;;;;;10.73;10.03;;;7.80;30.60;;;;;;5074030;28;20419;-54
2022/12/27 08:57:46;;;;;;;9.23;8.90;;;7.60;30.50;;;;;;5074160;28;20416;-55
2022/12/27 09:00:12;;;;;;;9.10;8.80;;;7.60;31.70;;;;;;5073896;28;20178;-55
2022/12/27 09:02:38;;;;;;;9.27;8.87;;;7.70;31.80;;;;;;5073539;28;20215;-54
2022/12/27 09:05:04;;;;;;;9.13;8.73;;;7.90;30.70;;;;;;5073959;28;20442;-54
2022/12/27 09:07:29;;;;;;;9.90;9.23;;;8.10;30.90;;;;;;5073752;28;20524;-55
2022/12/27 09:09:55;;;;;;;9.37;8.93;;;8.30;29.90;;;;;;5073936;28;20420;-55
2022/12/27 09:12:20;;;;;;;8.03;7.73;;;8.10;29.30;;;;;;5073616;28;20569;-54
2022/12/27 09:14:46;;;;;;;8.33;8.03;;;8.10;30.90;;;;;;5073892;28;20212;-56
2022/12/27 09:17:12;;;;;;;10.00;9.50;;;8.20;29.80;;;;;;5074042;28;20182;-62
2022/12/27 09:19:38;;;;;;;8.97;8.57;;;7.90;29.90;;;;;;5073766;28;20247;-63
2022/12/27 09:22:04;;;;;;;8.93;8.53;;;7.80;29.90;;;;;;5073790;28;20445;-62
2022/12/27 09:24:29;;;;;;;9.07;8.57;;;7.70;30.50;;;;;;5075806;28;20273;-63
2022/12/27 09:26:55;;;;;;;8.97;8.67;;;7.80;29.80;;;;;;5077986;28;20607;-63
2022/12/27 09:29:20;;;;;;;9.13;8.77;;;7.60;30.50;;;;;;5077331;28;20191;-62
2022/12/27 09:31:46;;;;;;;9.00;8.30;;;7.50;30.50;;;;;;5077269;28;20301;-62
2022/12/27 09:34:12;;;;;;;9.77;9.33;;;7.50;30.40;;;;;;5077859;28;20208;-62
2022/12/27 09:36:38;;;;;;;9.80;9.10;;;7.40;30.90;;;;;;5077481;28;20175;-55
2022/12/27 09:39:04;;;;;;;9.40;8.70;;;7.40;30.40;;;;;;5077490;28;20569;-53
2022/12/27 09:42:00;;;;;;;8.53;8.03;;;7.40;30.50;;;;;;5077257;28;20416;-55
2022/12/27 09:44:40;;;;;;;9.00;8.60;;;7.40;30.30;;;;;;5077308;28;20281;-54
2022/12/27 09:47:27;;;;;;;9.60;9.10;;;7.60;30.50;;;;;;5077410;28;20419;-53
2022/12/27 09:50:15;;;;;;;9.53;9.13;;;7.70;30.50;;;;;;5077414;28;20501;-53
2022/12/27 09:52:59;;;;;;;8.00;7.60;;;7.70;29.90;;;;;;5077186;28;20937;-55
2022/12/27 09:55:44;;;;;;;8.90;8.43;;;7.70;29.70;;;;;;5077178;28;20420;-54
2022/12/27 09:58:33;;;;;;;9.30;8.70;;;7.90;30.00;;;;;;5077265;28;20829;-50
2022/12/27 10:01:00;;;;;;;9.80;9.10;;;7.80;29.60;;;;;;5068869;28;20424;-55
2022/12/27 10:03:27;;;;;;;14.13;13.37;;;7.70;29.60;;;;;;5076784;28;20428;-56
2022/12/27 10:06:17;;;;;;;137.37;131.07;;;7.70;29.60;;;;;;5077056;28;20412;-54
2022/12/27 10:08:48;;;;;;;19.60;18.53;;;7.70;29.40;;;;;;5076929;28;20413;-56
2022/12/27 10:11:37;;;;;;;10.40;9.70;;;7.80;29.30;;;;;;5076727;28;20459;-55
2022/12/27 10:14:29;;;;;;;11.10;10.20;;;7.70;29.30;;;;;;5077048;28;20445;-55
2022/12/27 10:16:55;;;;;;;10.77;10.33;;;7.80;29.00;;;;;;5077036;28;20421;-56
2022/12/27 10:19:37;;;;;;;11.03;10.30;;;7.90;29.00;;;;;;5076815;28;20405;-55
2022/12/27 10:22:12;;;;;;;11.10;10.50;;;8.00;29.40;;;;;;5076679;28;20217;-53
2022/12/27 10:24:50;;;;;;;11.93;11.33;;;8.00;29.30;;;;;;5076669;28;21021;-55
2022/12/27 10:27:24;;;;;;;9.70;9.17;;;8.10;29.40;;;;;;5076750;28;20830;-53
2022/12/27 10:29:54;;;;;;;10.00;9.57;;;8.20;29.20;;;;;;5076534;28;20499;-53
2022/12/27 10:32:20;;;;;;;9.47;8.80;;;8.30;28.90;;;;;;5094521;28;20887;-53
2022/12/27 10:34:53;;;;;;;9.80;9.30;;;8.30;29.30;;;;;;5076235;28;20456;-62
2022/12/27 10:37:18;;;;;;;9.97;9.47;;;8.30;29.00;;;;;;5076868;28;20265;-62
2022/12/27 10:39:44;;;;;;;9.07;8.60;;;8.30;29.00;;;;;;5078709;28;20447;-63
2022/12/27 10:42:28;;;;;;;9.33;8.83;;;8.30;29.00;;;;;;5077091;28;20174;-62
2022/12/27 10:45:23;;;;;;;9.70;9.20;;;8.30;29.20;;;;;;5076385;28;20606;-63
2022/12/27 10:47:50;;;;;;;9.80;9.40;;;8.20;29.40;;;;;;5076387;28;20429;-63
2022/12/27 10:50:16;;;;;;;10.03;9.47;;;8.20;29.20;;;;;;5076161;28;20424;-62
2022/12/27 10:52:43;;;;;;;8.93;8.43;;;8.30;29.50;;;;;;5075902;28;20828;-63
2022/12/27 10:55:36;;;;;;;8.73;8.33;;;8.30;28.90;;;;;;5076230;28;20269;-63
2022/12/27 10:58:44;;;;;;;8.90;8.50;;;8.50;28.50;;;;;;5076188;28;20420;-63
2022/12/27 11:01:23;;;;;;;9.23;8.73;;;8.50;28.70;;;;;;5075902;28;20913;-63
2022/12/27 11:04:08;;;;;;;9.10;8.60;;;8.70;28.10;;;;;;5094193;28;20436;-63
2022/12/27 11:06:34;;;;;;;9.33;8.80;;;8.60;28.20;;;;;;5075767;28;20413;-63
2022/12/27 11:09:17;;;;;;;9.20;8.80;;;8.60;28.20;;;;;;5075938;28;20435;-63
2022/12/27 11:11:42;;;;;;;9.90;9.20;;;8.70;28.40;;;;;;5075616;28;20659;-63
2022/12/27 11:14:17;;;;;;;11.90;11.30;;;8.70;28.00;;;;;;5075937;28;20420;-63
2022/12/27 11:16:44;;;;;;;10.47;10.07;;;8.70;28.70;;;;;;5075699;28;20174;-63
2022/12/27 11:19:30;;;;;;;9.00;8.70;;;8.70;28.40;;;;;;5093843;28;20432;-63
2022/12/27 11:21:56;;;;;;;8.90;8.50;;;8.70;28.60;;;;;;5093340;28;20437;-53
2022/12/27 11:24:22;;;;;;;8.93;8.43;;;8.80;28.30;;;;;;5075497;28;20485;-54
2022/12/27 11:26:58;;;;;;;9.70;9.20;;;8.60;28.00;;;;;;5075488;28;20185;-55
2022/12/27 11:29:27;;;;;;;10.23;9.70;;;8.50;28.80;;;;;;5075519;28;20442;-52
2022/12/27 11:31:54;;;;;;;9.10;8.70;;;8.40;28.90;;;;;;5093308;28;20456;-54
2022/12/27 11:34:38;;;;;;;9.60;9.10;;;8.50;29.20;;;;;;5075344;28;20419;-55
2022/12/27 11:37:15;;;;;;;8.60;8.20;;;8.50;29.40;;;;;;5075351;28;20427;-55
2022/12/27 11:39:50;;;;;;;9.47;9.03;;;8.40;28.80;;;;;;5075217;28;20423;-55
2022/12/27 11:42:16;;;;;;;8.70;8.20;;;8.50;29.00;;;;;;5075127;28;20430;-53
2022/12/27 11:45:04;;;;;;;11.97;11.50;;;8.50;28.90;;;;;;5074975;28;20531;-51
2022/12/27 11:47:41;;;;;;;8.50;8.20;;;8.50;28.90;;;;;;5074609;28;20471;-55
2022/12/27 11:50:28;;;;;;;9.10;8.50;;;8.60;28.70;;;;;;5075011;28;20931;-54
2022/12/27 11:53:15;;;;;;;9.90;9.33;;;8.60;28.40;;;;;;5074801;28;20455;-55
2022/12/27 11:55:58;;;;;;;8.60;8.20;;;8.70;28.50;;;;;;5074858;28;20417;-54
2022/12/27 11:58:37;;;;;;;8.77;8.17;;;8.80;28.30;;;;;;5092927;28;20433;-56
2022/12/27 12:01:48;;;;;;;9.40;8.80;;;8.80;28.30;;;;;;5074698;28;20428;-56
2022/12/27 12:04:52;;;;;;;8.50;8.00;;;8.60;27.70;;;;;;5074639;28;20901;-54
2022/12/27 12:07:20;;;;;;;8.70;8.27;;;8.60;28.20;;;;;;5074798;28;20704;-56
2022/12/27 12:10:10;;;;;;;9.00;8.50;;;8.60;28.30;;;;;;5074511;28;20412;-51
2022/12/27 12:12:55;;;;;;;8.40;8.00;;;8.50;28.30;;;;;;5097747;28;20505;-62
2022/12/27 12:15:56;;;;;;;8.23;7.83;;;8.60;28.70;;;;;;5074419;28;20440;-62
2022/12/27 12:18:33;;;;;;;8.90;8.43;;;8.50;28.50;;;;;;5046285;28;20499;-62
2022/12/27 12:21:33;;;;;;;9.00;8.50;;;8.70;28.70;;;;;;5074637;28;20413;-62
2022/12/27 12:24:21;;;;;;;9.30;8.80;;;8.70;28.80;;;;;;5074529;28;20428;-61
2022/12/27 12:27:14;;;;;;;8.93;8.33;;;8.80;28.20;;;;;;5074896;28;20417;-54
2022/12/27 12:30:04;;;;;;;9.60;8.90;;;8.80;27.80;;;;;;5074594;28;20426;-53
2022/12/27 12:32:52;;;;;;;8.87;8.47;;;8.80;28.00;;;;;;5063376;28;20922;-53
2022/12/27 12:35:24;;;;;;;9.30;8.73;;;8.70;28.30;;;;;;5074246;28;20452;-53
2022/12/27 12:38:10;;;;;;;8.70;8.33;;;8.70;28.50;;;;;;5074302;28;20466;-62
2022/12/27 12:41:02;;;;;;;9.27;8.47;;;8.80;28.30;;;;;;5074185;28;20836;-62
2022/12/27 12:43:49;;;;;;;8.50;8.03;;;8.90;28.20;;;;;;5074112;28;20433;-62
2022/12/27 12:46:35;;;;;;;9.33;8.93;;;8.80;27.80;;;;;;5074043;28;20420;-62
2022/12/27 12:49:40;;;;;;;9.97;9.47;;;8.80;28.10;;;;;;5074221;28;20483;-62
2022/12/27 12:52:43;;;;;;;9.00;8.50;;;8.90;28.10;;;;;;5073944;28;20455;-62
2022/12/27 12:55:30;;;;;;;9.63;8.93;;;9.00;28.20;;;;;;5073918;28;20417;-62
2022/12/27 12:58:14;;;;;;;8.50;8.10;;;9.00;28.50;;;;;;5073267;28;20447;-62
2022/12/27 13:01:07;;;;;;;8.50;8.10;;;9.10;28.20;;;;;;5073873;28;20446;-62
2022/12/27 13:03:48;;;;;;;8.60;8.30;;;9.10;27.90;;;;;;5073983;28;20416;-61
2022/12/27 13:06:25;;;;;;;8.90;8.40;;;9.10;27.90;;;;;;5073904;28;20478;-61
2022/12/27 13:08:57;;;;;;;9.23;8.73;;;9.10;28.60;;;;;;5073882;28;20909;-61
2022/12/27 13:12:03;;;;;;;8.87;8.40;;;9.20;28.10;;;;;;5091597;28;20496;-61
2022/12/27 13:14:53;;;;;;;8.83;8.43;;;9.30;28.10;;;;;;5071797;28;20414;-62
2022/12/27 13:17:38;;;;;;;8.77;8.37;;;9.40;28.00;;;;;;5073909;28;20447;-62
2022/12/27 13:20:22;;;;;;;9.83;9.20;;;9.40;28.10;;;;;;5073926;28;20421;-62
2022/12/27 13:23:22;;;;;;;8.70;8.40;;;9.50;27.30;;;;;;5073796;28;20916;-56
2022/12/27 13:25:52;;;;;;;8.83;8.43;;;9.40;27.40;;;;;;5073597;28;20417;-54
2022/12/27 13:28:30;;;;;;;9.10;8.70;;;9.40;27.60;;;;;;5092036;28;20965;-51
2022/12/27 13:31:03;;;;;;;8.53;8.10;;;9.40;27.70;;;;;;5073767;28;20428;-53
2022/12/27 13:33:47;;;;;;;10.30;9.27;;;9.30;27.70;;;;;;5073721;28;20467;-54
2022/12/27 13:36:19;;;;;;;10.03;9.30;;;9.30;27.70;;;;;;5073768;28;20427;-53
2022/12/27 13:39:04;;;;;;;8.70;8.30;;;9.30;28.10;;;;;;5073722;28;20412;-51
2022/12/27 13:41:33;;;;;;;8.20;7.80;;;9.20;27.40;;;;;;5073261;28;20936;-55
2022/12/27 13:44:35;;;;;;;8.80;8.40;;;9.20;27.70;;;;;;5073626;28;20959;-54
2022/12/27 13:47:41;;;;;;;8.50;8.00;;;9.20;28.00;;;;;;5073517;28;20927;-55
2022/12/27 13:50:34;;;;;;;8.70;8.40;;;9.20;27.90;;;;;;5042890;28;20421;-55
2022/12/27 13:53:18;;;;;;;9.37;8.93;;;9.30;27.90;;;;;;5073401;28;20989;-52
2022/12/27 13:56:03;;;;;;;9.37;8.50;;;9.20;28.10;;;;;;5073415;28;20779;-53
2022/12/27 13:58:56;;;;;;;8.87;8.47;;;9.40;28.10;;;;;;5073563;28;20446;-54
2022/12/27 14:01:28;;;;;;;8.50;8.00;;;9.40;27.80;;;;;;5073097;28;20423;-54
2022/12/27 14:04:29;;;;;;;8.83;8.40;;;9.20;27.30;;;;;;5073586;28;20416;-55
2022/12/27 14:07:25;;;;;;;9.03;8.63;;;9.10;27.80;;;;;;5073360;28;20420;-53
2022/12/27 14:09:59;;;;;;;8.40;8.00;;;9.10;27.90;;;;;;5074482;28;20420;-53
2022/12/27 14:12:34;;;;;;;8.83;8.33;;;9.20;28.00;;;;;;5076783;28;20455;-56
2022/12/27 14:15:04;;;;;;;9.83;9.10;;;9.20;28.20;;;;;;5076873;28;20514;-56
2022/12/27 14:18:11;;;;;;;8.33;7.93;;;9.30;28.50;;;;;;5076824;28;20445;-55
2022/12/27 14:20:55;;;;;;;8.93;8.50;;;9.20;28.10;;;;;;5076777;28;20408;-56
2022/12/27 14:23:30;;;;;;;8.57;8.10;;;9.30;27.90;;;;;;5076632;28;20420;-55
2022/12/27 14:26:24;;;;;;;9.23;8.70;;;9.40;27.70;;;;;;5076702;28;20924;-54
2022/12/27 14:29:11;;;;;;;8.73;8.33;;;9.30;27.80;;;;;;5076729;28;20413;-54
2022/12/27 14:31:44;;;;;;;9.87;8.93;;;9.20;27.70;;;;;;5076273;28;20459;-53
2022/12/27 14:34:29;;;;;;;7.87;7.47;;;9.10;27.90;;;;;;5076726;28;20482;-50
2022/12/27 14:37:06;;;;;;;9.03;8.53;;;9.20;28.10;;;;;;5076505;28;20505;-52
2022/12/27 14:39:50;;;;;;;9.63;8.87;;;9.20;27.80;;;;;;5076373;28;20412;-50
2022/12/27 14:42:36;;;;;;;8.50;8.10;;;9.20;27.90;;;;;;5076152;28;20417;-52
2022/12/27 14:45:18;;;;;;;8.73;8.33;;;9.30;27.60;;;;;;5076292;28;20441;-54
2022/12/27 14:48:05;;;;;;;8.60;8.20;;;9.20;27.70;;;;;;5076376;28;20417;-54
2022/12/27 14:50:34;;;;;;;9.60;9.10;;;9.30;27.70;;;;;;5076150;28;20439;-54
2022/12/27 14:53:10;;;;;;;10.03;9.30;;;9.30;27.60;;;;;;5076062;28;20468;-52
2022/12/27 14:55:53;;;;;;;9.37;8.87;;;9.30;27.60;;;;;;5076133;28;20421;-53
2022/12/27 14:58:39;;;;;;;11.10;10.20;;;9.30;27.60;;;;;;5094197;28;20404;-53
2022/12/27 15:01:21;;;;;;;9.93;9.33;;;9.20;27.50;;;;;;5075809;28;20452;-53
2022/12/27 15:04:30;;;;;;;9.43;8.93;;;9.10;27.90;;;;;;5076147;28;20424;-56
2022/12/27 15:07:23;;;;;;;9.03;8.63;;;9.30;28.00;;;;;;5075915;28;20896;-56